Time;durP1;ratioP1;P1;durP2;ratioP2;P2;SDS_P1;SDS_P2;PMS_P1;PMS_P2;Temp;Humidity;BMP_temperature;BMP_pressure;BME280_temperature;BME280_humidity;BME280_pressure;Samples;Min_cycle;Max_cycle;Signal;HPM_P1;HPM_P2
2022/09/19 00:05:28;;;;;;;2.17;0.90;;;;;;;10.91;100.00;100705.28;5860147;24;20032;31
2022/09/19 03:56:37;;;;;;;0.30;0.10;;;;;;;8.29;97.44;100556.22;5845303;24;19923;-80
2022/09/19 04:01:38;;;;;;;1.27;0.13;;;;;;;8.87;97.37;100650.94;5059449;23;20085;-82
2022/09/19 04:17:00;;;;;;;0.35;0.10;;;;;;;8.28;98.12;100613.53;5141880;24;20061;-81
2022/09/19 04:19:29;;;;;;;0.32;0.00;;;;;;;9.83;98.32;100860.00;4878380;29;20024;-82
2022/09/19 04:27:11;;;;;;;0.68;0.10;;;;;;;8.49;98.23;100655.66;5836976;24;20208;-81
2022/09/19 04:29:38;;;;;;;0.77;0.10;;;;;;;8.31;99.21;100648.03;4847767;29;20026;-82
2022/09/19 04:32:04;;;;;;;0.20;0.10;;;;;;;8.06;98.22;100596.56;4855827;29;20010;-82
2022/09/19 04:34:30;;;;;;;1.05;0.20;;;;;;;9.78;97.92;100874.03;5264773;23;20047;-81
2022/09/19 04:36:57;;;;;;;0.30;0.10;;;;;;;9.04;98.31;100771.41;4825716;29;20059;-81
2022/09/19 04:39:24;;;;;;;0.40;0.17;;;;;;;8.28;98.21;100653.75;4810086;29;20034;-81
2022/09/19 04:41:52;;;;;;;1.45;0.10;;;;;;;9.01;98.18;100779.88;4808334;29;20025;-81
2022/09/19 04:44:18;;;;;;;0.45;0.10;;;;;;;9.55;98.32;100860.78;4803036;30;20019;-81
2022/09/19 04:46:50;;;;;;;0.68;0.10;;;;;;;9.00;98.35;100791.63;4804971;29;20035;-81
2022/09/19 04:51:55;;;;;;;0.82;0.10;;;;;;;8.52;98.01;100721.50;4946638;24;20049;-82
2022/09/19 04:54:21;;;;;;;0.30;0.10;;;;;;;7.73;98.01;100582.75;4838288;29;20034;-83
2022/09/19 04:56:46;;;;;;;1.20;0.20;;;;;;;9.50;97.75;100867.75;5161787;24;20054;-82
2022/09/19 04:59:15;;;;;;;0.25;0.10;;;;;;;8.47;97.46;100730.94;5105892;24;20063;-82
2022/09/19 05:06:55;;;;;;;0.47;0.10;;;;;;;8.68;97.62;100745.44;5481122;24;20038;-83
2022/09/19 06:20:47;;;;;;;0.30;0.10;;;;;;;10.54;88.42;100938.84;5570276;23;20039;31
2022/09/19 06:26:14;;;;;;;0.80;0.10;;;;;;;10.55;88.35;100942.38;5188058;23;20780;-81
2022/09/19 10:35:34;;;;;;;0.10;0.10;;;;;;;14.00;66.96;101022.91;5922551;23;20063;31
2022/09/19 10:38:00;;;;;;;0.30;0.13;;;;;;;14.04;68.26;101026.88;4829531;29;20044;-81
2022/09/19 10:40:29;;;;;;;0.30;0.10;;;;;;;12.77;68.58;100834.63;4829639;29;20026;-81
2022/09/19 10:45:33;;;;;;;0.30;0.10;;;;;;;12.87;67.13;100823.38;5323840;23;20076;-81
2022/09/19 10:48:07;;;;;;;1.00;0.20;;;;;;;14.25;67.17;101025.69;4881587;29;20009;-80
2022/09/19 10:50:33;;;;;;;0.32;0.10;;;;;;;13.58;68.29;100938.69;4878546;29;20034;-80
2022/09/19 10:53:03;;;;;;;0.50;0.20;;;;;;;13.32;67.03;100894.50;4859062;29;20034;-80
2022/09/19 10:55:33;;;;;;;0.40;0.10;;;;;;;13.15;68.27;100829.28;4876472;29;20025;-81
2022/09/19 10:58:06;;;;;;;0.93;0.10;;;;;;;13.22;66.55;100841.94;4865273;29;20029;-81
2022/09/19 11:00:53;;;;;;;0.30;0.10;;;;;;;13.84;66.97;100943.09;4862169;29;20363;-80
2022/09/19 11:03:23;;;;;;;0.15;0.10;;;;;;;14.53;66.31;101038.84;4869725;29;20029;-79
2022/09/19 11:06:07;;;;;;;0.57;0.20;;;;;;;14.61;65.09;101041.31;4868790;29;20459;-80
2022/09/19 11:08:44;;;;;;;0.10;0.10;;;;;;;13.25;65.95;100784.81;5306822;24;20273;-81
2022/09/19 11:11:37;;;;;;;0.30;0.10;;;;;;;13.91;65.03;100891.66;4868668;29;20026;-82
2022/09/19 11:14:07;;;;;;;0.70;0.20;;;;;;;13.37;64.67;100829.81;4867786;29;20077;-82
2022/09/19 11:17:04;;;;;;;0.13;0.10;;;;;;;13.27;65.34;100791.63;4864086;29;20037;-82
2022/09/19 11:19:50;;;;;;;0.50;0.10;;;;;;;14.72;63.82;101042.47;4875746;29;20041;-81
2022/09/19 11:22:35;;;;;;;0.55;0.15;;;;;;;14.68;64.87;101052.09;4856038;29;20037;-81
2022/09/19 11:25:15;;;;;;;0.10;0.10;;;;;;;14.05;66.78;100953.59;4861294;29;20085;-82
2022/09/19 11:27:58;;;;;;;0.52;0.20;;;;;;;14.38;66.88;101025.63;5757355;24;20000;-82
2022/09/19 11:30:28;;;;;;;0.75;0.20;;;;;;;14.48;66.90;101042.19;4883062;29;20021;-80
2022/09/19 11:35:38;;;;;;;2.00;0.20;;;;;;;13.85;71.23;100944.78;4896311;24;20054;-82
2022/09/19 11:38:32;;;;;;;0.35;0.13;;;;;;;14.44;69.97;101054.53;4835796;29;20045;-81
2022/09/19 11:41:19;;;;;;;0.00;0.00;;;;;;;14.40;70.57;101052.44;4830846;29;20048;-81
2022/09/19 11:44:16;;;;;;;0.32;0.20;;;;;;;14.38;70.72;101047.28;4816813;29;20529;-81
2022/09/19 11:47:14;;;;;;;1.60;0.20;;;;;;;14.35;71.62;101042.28;4824456;29;20112;-81
2022/09/19 11:49:59;;;;;;;0.90;0.20;;;;;;;14.33;72.80;101025.44;4809547;29;20090;-81
2022/09/19 11:52:52;;;;;;;0.55;0.10;;;;;;;14.31;73.48;101044.59;4815881;29;20034;-81
2022/09/19 11:55:41;;;;;;;0.30;0.10;;;;;;;14.35;73.60;101047.72;4849691;29;20026;-82
2022/09/19 11:58:15;;;;;;;1.13;0.40;;;;;;;14.21;73.31;101035.31;5514896;23;20062;-82
2022/09/19 12:00:53;;;;;;;;;;;;;;;14.38;72.35;101063.50;4815679;29;20062;-82
2022/09/19 12:03:18;;;;;;;1.52;0.20;;;;;;;14.33;72.46;101044.38;4841864;29;19916;-81
2022/09/19 12:06:08;;;;;;;0.55;0.15;;;;;;;13.44;72.72;100904.63;4844923;29;20041;-81
2022/09/19 12:08:59;;;;;;;0.30;0.10;;;;;;;14.41;73.53;101051.44;4823888;29;20030;-81
2022/09/19 12:11:37;;;;;;;0.77;0.20;;;;;;;14.01;73.00;101001.06;4841715;29;20095;-82
2022/09/19 12:14:25;;;;;;;0.85;0.10;;;;;;;14.46;72.58;101047.00;4828807;29;20536;-81
2022/09/19 12:16:57;;;;;;;0.15;0.10;;;;;;;13.53;71.61;100892.53;4823160;29;20041;-81
2022/09/19 12:19:33;;;;;;;1.23;0.25;;;;;;;13.55;72.14;100891.28;4843794;29;20025;-81
2022/09/19 12:22:06;;;;;;;1.85;0.28;;;;;;;13.00;71.92;100820.63;4828863;29;20042;-81
2022/09/19 12:24:56;;;;;;;0.88;0.47;;;;;;;12.91;72.60;100813.81;4804952;29;20039;-80
2022/09/19 12:27:59;;;;;;;2.67;0.20;;;;;;;12.89;74.60;100794.31;4827165;29;20072;-80
2022/09/19 12:30:34;;;;;;;0.90;0.30;;;;;;;13.30;73.06;100874.13;4836571;29;20078;-81
2022/09/19 12:35:46;;;;;;;0.55;0.10;;;;;;;14.44;73.07;101032.88;5575571;24;19916;-81
2022/09/19 12:38:27;;;;;;;1.00;0.20;;;;;;;14.49;73.33;101054.69;4866896;29;20025;-82
2022/09/19 12:40:59;;;;;;;0.90;0.20;;;;;;;14.48;73.32;101057.63;4861850;29;20026;-82
2022/09/19 12:43:31;;;;;;;0.03;0.03;;;;;;;14.49;72.35;101049.25;4883734;29;20032;-82
2022/09/19 12:46:09;;;;;;;1.02;0.30;;;;;;;12.98;71.90;100811.94;4862546;29;20037;-81
2022/09/19 12:48:49;;;;;;;2.30;0.32;;;;;;;13.37;73.18;100856.00;5017338;24;20061;-83
2022/09/19 12:51:24;;;;;;;2.08;0.40;;;;;;;12.97;74.47;100812.94;4873817;29;20029;-81
2022/09/19 12:54:00;;;;;;;;;;;;;;;14.64;73.09;101053.59;4865290;29;20040;-81
2022/09/19 12:57:06;;;;;;;0.70;0.13;;;;;;;14.63;72.51;101049.19;4863853;29;19896;-81
2022/09/19 12:59:35;;;;;;;1.52;0.20;;;;;;;13.86;71.04;100932.91;4796073;30;20083;-80
2022/09/19 13:02:22;;;;;;;1.42;0.20;;;;;;;13.74;71.65;100921.97;4795896;30;20035;-80
2022/09/19 13:04:53;;;;;;;1.27;0.47;;;;;;;14.77;73.06;101067.03;4820556;29;20486;-81
2022/09/19 13:07:52;;;;;;;1.20;0.38;;;;;;;14.73;72.74;101060.38;4871471;29;20041;-80
2022/09/19 13:10:45;;;;;;;1.75;0.30;;;;;;;13.26;73.64;100817.00;4871312;29;20037;-80
2022/09/19 13:13:36;;;;;;;0.88;0.20;;;;;;;14.72;70.32;101066.84;4873351;29;20076;-82
2022/09/19 13:16:16;;;;;;;2.63;0.30;;;;;;;13.81;72.63;100909.22;4856647;29;20038;-80
2022/09/19 13:24:35;;;;;;;1.75;0.20;;;;;;;13.13;71.66;100812.47;4877032;29;20066;-81
2022/09/19 13:27:02;;;;;;;1.98;0.40;;;;;;;14.75;71.11;101048.28;4865600;29;20021;-81
2022/09/19 13:29:28;;;;;;;0.50;0.20;;;;;;;14.76;69.19;101041.78;4864018;29;20036;-82
2022/09/19 13:31:56;;;;;;;2.15;0.50;;;;;;;13.50;69.11;100845.13;4872838;29;20053;-80
2022/09/19 13:34:41;;;;;;;0.65;0.20;;;;;;;14.90;70.67;101083.19;4860021;29;20089;-80
2022/09/19 13:37:26;;;;;;;1.08;0.20;;;;;;;13.95;70.96;100888.31;4859072;29;20117;-81
2022/09/19 13:40:22;;;;;;;1.27;0.35;;;;;;;14.65;73.17;101015.44;4869723;29;20045;-81
2022/09/19 13:43:11;;;;;;;2.58;0.43;;;;;;;14.98;69.45;101074.75;4869244;29;20013;-82
2022/09/19 13:45:51;;;;;;;2.08;0.38;;;;;;;15.15;72.05;101096.72;4880168;29;20044;-82
2022/09/19 13:48:35;;;;;;;1.75;0.30;;;;;;;13.98;69.69;100896.00;5399877;23;20070;31
2022/09/19 13:51:45;;;;;;;2.95;0.30;;;;;;;15.21;69.50;101076.84;1924793;24;20258;-80
2022/09/19 13:54:16;;;;;;;0.30;0.20;;;;;;;15.17;69.87;101081.06;4867179;29;20029;-82
2022/09/19 13:59:32;;;;;;;1.05;0.20;;;;;;;14.06;69.73;100947.13;5520750;23;20054;-81
2022/09/19 14:04:54;;;;;;;0.77;0.20;;;;;;;13.95;68.22;100911.84;5123643;23;20064;-81
2022/09/19 14:07:38;;;;;;;1.00;0.22;;;;;;;15.02;69.81;101089.53;4848864;29;20062;-81
2022/09/19 14:10:14;;;;;;;1.38;0.30;;;;;;;14.62;69.16;101031.31;5058144;24;20064;-80
2022/09/19 14:12:44;;;;;;;0.75;0.22;;;;;;;15.07;69.86;101071.78;4853951;29;20432;-80
2022/09/19 14:15:28;;;;;;;1.20;0.20;;;;;;;15.00;68.50;101083.50;4844912;29;20032;-81
2022/09/19 14:18:12;;;;;;;1.33;0.30;;;;;;;15.17;69.16;101093.78;4854780;29;20041;-81
2022/09/19 14:21:00;;;;;;;0.85;0.20;;;;;;;14.29;69.23;100953.84;4843971;29;20456;-80
2022/09/19 14:23:31;;;;;;;1.05;0.30;;;;;;;14.27;70.45;100943.25;4860641;29;20030;-81
2022/09/19 14:26:12;;;;;;;2.17;0.50;;;;;;;15.11;68.62;101090.09;4844463;29;20014;-81
2022/09/19 14:29:00;;;;;;;0.77;0.20;;;;;;;14.18;67.11;100960.78;4845683;29;20093;-81
2022/09/19 14:31:35;;;;;;;2.03;0.30;;;;;;;15.08;66.09;101081.56;4844081;29;20049;-81
2022/09/19 14:36:44;;;;;;;1.70;0.30;;;;;;;15.04;69.04;101089.31;4827906;29;20034;-81
2022/09/19 14:39:35;;;;;;;0.63;0.20;;;;;;;14.98;66.72;101077.47;4806010;29;20031;-81
2022/09/19 14:42:24;;;;;;;1.38;0.30;;;;;;;15.10;67.35;101087.56;4820246;29;20086;-81
2022/09/19 14:45:24;;;;;;;2.17;0.20;;;;;;;14.03;69.33;100925.91;4808193;29;20034;-81
2022/09/19 14:48:01;;;;;;;0.57;0.30;;;;;;;13.79;69.57;100864.50;4819210;29;20023;-80
2022/09/19 14:50:43;;;;;;;1.52;0.32;;;;;;;13.88;68.50;100879.41;4830886;29;20022;-81
2022/09/19 14:53:25;;;;;;;1.52;0.17;;;;;;;14.31;67.45;100947.16;4830545;29;20040;-82
2022/09/19 14:56:12;;;;;;;2.35;0.40;;;;;;;15.22;69.48;101092.06;4830563;29;20027;-82
2022/09/19 14:58:39;;;;;;;0.65;0.20;;;;;;;14.71;68.56;101011.84;4809848;29;20049;-81
2022/09/19 15:01:30;;;;;;;1.60;0.30;;;;;;;15.18;66.87;101090.03;4808102;29;20039;-80
2022/09/19 15:03:59;;;;;;;0.20;0.20;;;;;;;15.23;65.67;101092.88;4793863;29;20035;-80
2022/09/19 15:06:32;;;;;;;1.40;0.30;;;;;;;14.70;67.58;101010.19;4820192;29;20027;-81
2022/09/19 15:08:58;;;;;;;0.65;0.17;;;;;;;14.67;67.04;101002.53;4813034;29;20041;-81
2022/09/19 15:11:24;;;;;;;0.20;0.10;;;;;;;14.35;67.52;100947.53;4805778;29;20100;-78
2022/09/19 15:13:50;;;;;;;0.77;0.20;;;;;;;15.16;66.63;101082.09;4770526;29;20039;-79
2022/09/19 15:16:16;;;;;;;0.50;0.17;;;;;;;15.29;66.69;101092.00;4787211;30;20032;-81
2022/09/19 15:18:42;;;;;;;4.38;0.35;;;;;;;15.27;66.10;101080.56;4813170;29;20069;-80
2022/09/19 15:21:22;;;;;;;2.38;0.20;;;;;;;15.06;65.37;101048.44;4827109;29;20042;-80
2022/09/19 15:23:49;;;;;;;1.00;0.30;;;;;;;14.81;64.54;101016.78;4826102;29;20035;-80
2022/09/19 15:26:17;;;;;;;1.98;0.40;;;;;;;15.26;64.90;101089.72;4814506;29;20042;-81
2022/09/19 15:29:07;;;;;;;3.53;0.30;;;;;;;15.25;66.30;101090.78;4830081;29;20046;-81
2022/09/19 15:31:33;;;;;;;1.48;0.30;;;;;;;15.15;68.16;101075.03;4830929;29;20018;-82
2022/09/19 15:33:58;;;;;;;1.50;0.30;;;;;;;15.24;69.40;101072.88;4800301;29;20035;-81
2022/09/19 15:36:24;;;;;;;1.17;0.20;;;;;;;15.21;66.67;101071.44;4830283;29;20053;-82
2022/09/19 15:38:54;;;;;;;0.60;0.20;;;;;;;15.16;65.87;101059.59;4813917;29;20072;-82
2022/09/19 15:41:22;;;;;;;0.60;0.20;;;;;;;15.13;65.20;101057.31;4829358;29;20023;-82
2022/09/19 15:43:48;;;;;;;1.80;0.13;;;;;;;15.30;63.70;101080.13;4813171;29;20019;-81
2022/09/19 15:46:37;;;;;;;0.82;0.30;;;;;;;15.20;65.23;101083.34;4807860;29;20066;-82
2022/09/19 15:49:06;;;;;;;0.52;0.20;;;;;;;15.25;64.87;101074.53;4826545;29;20022;-80
2022/09/19 15:51:33;;;;;;;1.17;0.17;;;;;;;15.30;65.02;101093.66;4814328;29;20015;-82
2022/09/19 15:54:04;;;;;;;1.98;0.20;;;;;;;15.31;67.04;101094.50;4813469;29;20366;-81
2022/09/19 15:56:44;;;;;;;2.22;0.20;;;;;;;15.18;65.23;101096.28;4808489;29;20069;-79
2022/09/19 15:59:16;;;;;;;1.98;0.38;;;;;;;15.03;63.42;101061.38;4942730;24;20145;-79
2022/09/19 16:01:47;;;;;;;1.00;0.20;;;;;;;15.34;64.10;101103.00;4824038;29;20030;-78
2022/09/19 16:04:19;;;;;;;0.50;0.13;;;;;;;15.35;64.31;101101.94;4826858;29;20014;-80
2022/09/19 16:09:39;;;;;;;0.82;0.20;;;;;;;15.11;63.67;101067.56;4835493;29;20384;-81
2022/09/19 16:12:19;;;;;;;0.98;0.28;;;;;;;15.29;64.42;101092.00;4841142;29;20030;-81
2022/09/19 16:14:46;;;;;;;1.40;0.28;;;;;;;14.54;64.11;100984.50;4835193;29;20030;-81
2022/09/19 16:17:22;;;;;;;2.40;0.30;;;;;;;15.30;65.96;101104.50;4837595;29;20034;-82
2022/09/19 16:19:49;;;;;;;1.80;0.20;;;;;;;15.25;63.60;101112.47;4840499;29;20098;-81
2022/09/19 16:22:22;;;;;;;0.38;0.20;;;;;;;15.18;63.18;101103.56;4842341;29;20156;-82
2022/09/19 16:25:11;;;;;;;1.63;0.28;;;;;;;15.21;62.34;101116.69;4834242;29;20034;-82
2022/09/19 16:27:37;;;;;;;0.65;0.30;;;;;;;15.07;63.75;101098.88;4832314;29;20030;-80
2022/09/19 16:30:03;;;;;;;1.00;0.20;;;;;;;15.12;66.03;101115.31;4828528;29;20050;-79
2022/09/19 16:32:30;;;;;;;0.50;0.20;;;;;;;14.89;62.92;101132.97;4808365;29;20441;-80
2022/09/19 16:35:00;;;;;;;1.60;0.20;;;;;;;14.71;63.53;101108.53;4828364;29;20034;-80
2022/09/19 16:37:38;;;;;;;1.67;0.30;;;;;;;14.98;65.40;101126.25;4826850;29;20032;-80
2022/09/19 16:40:29;;;;;;;1.85;0.20;;;;;;;15.08;65.12;101130.34;4825578;29;20476;-81
2022/09/19 16:42:54;;;;;;;0.73;0.10;;;;;;;14.78;65.00;101087.66;4827831;29;20117;-80
2022/09/19 16:45:23;;;;;;;0.75;0.28;;;;;;;14.79;64.90;101100.97;4807601;29;20053;-80
2022/09/19 16:47:50;;;;;;;0.93;0.28;;;;;;;14.88;63.72;101135.94;4825152;29;20116;-80
2022/09/19 16:50:25;;;;;;;2.28;0.77;;;;;;;14.78;62.93;101117.44;4825610;29;20406;-80
2022/09/19 16:52:51;;;;;;;0.90;0.20;;;;;;;14.51;62.46;101095.97;4826969;29;20395;-80
2022/09/19 16:55:23;;;;;;;3.33;0.28;;;;;;;14.76;64.11;101135.78;4823712;29;20095;-79
2022/09/19 16:57:50;;;;;;;1.70;0.30;;;;;;;14.70;65.33;101150.19;4818057;29;20042;-79
2022/09/19 17:00:16;;;;;;;2.13;0.20;;;;;;;14.63;64.70;101152.94;4819099;29;20688;-79
2022/09/19 17:02:41;;;;;;;1.02;0.50;;;;;;;14.48;65.33;101134.25;4795745;29;20042;-79
2022/09/19 17:05:14;;;;;;;3.03;0.20;;;;;;;14.22;64.78;101101.91;4840905;29;20073;-80
2022/09/19 17:07:40;;;;;;;2.15;0.20;;;;;;;14.57;66.33;101149.25;4825181;29;20099;-79
2022/09/19 17:10:05;;;;;;;2.50;0.20;;;;;;;14.54;64.40;101152.38;4826099;29;20034;-80
2022/09/19 17:12:31;;;;;;;1.23;0.25;;;;;;;14.53;64.97;101153.41;4813820;29;20098;-80
2022/09/19 17:14:56;;;;;;;0.98;0.20;;;;;;;14.50;64.95;101156.59;4816218;29;20034;-81
2022/09/19 17:17:22;;;;;;;0.43;0.20;;;;;;;14.36;65.09;101135.97;4836282;29;20537;-81
2022/09/19 17:19:47;;;;;;;0.10;0.10;;;;;;;14.20;65.83;101115.66;4829122;29;20026;-81
2022/09/19 17:22:18;;;;;;;0.40;0.10;;;;;;;14.39;67.28;101151.81;4836640;29;20046;-81
2022/09/19 17:24:45;;;;;;;2.42;0.15;;;;;;;14.41;66.67;101155.13;4835853;29;20045;-81
2022/09/19 17:27:12;;;;;;;2.17;0.13;;;;;;;14.38;67.33;101150.16;4835210;29;20030;-81
2022/09/19 17:29:38;;;;;;;1.20;0.20;;;;;;;14.38;67.64;101138.50;4832285;29;20037;-80
2022/09/19 17:32:07;;;;;;;0.38;0.10;;;;;;;14.39;67.00;101157.22;4814473;29;20117;-80
2022/09/19 17:34:33;;;;;;;0.90;0.20;;;;;;;14.34;67.30;101149.75;4828456;29;20099;-81
2022/09/19 17:36:58;;;;;;;1.33;0.20;;;;;;;14.43;67.21;101174.69;4836969;29;20019;-82
2022/09/19 17:39:24;;;;;;;1.10;0.20;;;;;;;14.42;67.73;101173.03;4843205;29;20045;-82
2022/09/19 17:41:50;;;;;;;0.50;0.10;;;;;;;14.36;67.73;101178.47;4821266;29;20039;-81
2022/09/19 17:44:16;;;;;;;1.73;0.30;;;;;;;13.97;69.28;101140.53;4839398;29;20060;-81
2022/09/19 17:46:42;;;;;;;1.08;0.20;;;;;;;12.83;69.92;100959.88;4849725;29;20014;-81
2022/09/19 17:49:09;;;;;;;0.57;0.17;;;;;;;14.23;69.44;101182.06;4842440;29;20457;-81
2022/09/19 17:51:34;;;;;;;2.20;0.30;;;;;;;13.76;69.99;101109.16;4842626;29;20067;-82
2022/09/19 17:54:01;;;;;;;0.70;0.30;;;;;;;13.83;69.11;101131.59;4839837;29;20050;-81
2022/09/19 17:56:29;;;;;;;1.58;0.20;;;;;;;13.05;69.01;101001.81;4840514;29;20026;-81
2022/09/19 17:58:57;;;;;;;0.50;0.13;;;;;;;14.22;69.64;101189.34;4835837;29;20086;-80
2022/09/19 18:04:09;;;;;;;1.30;0.20;;;;;;;13.50;70.44;101098.41;4842633;29;20036;-81
2022/09/19 18:06:36;;;;;;;2.58;0.30;;;;;;;13.37;70.60;101091.97;4854870;29;20029;-80
2022/09/19 18:09:04;;;;;;;2.38;0.10;;;;;;;14.03;71.24;101195.66;4852393;29;20034;-80
2022/09/19 18:11:32;;;;;;;3.30;0.20;;;;;;;13.97;72.14;101191.09;4839362;29;20026;-81
2022/09/19 18:14:02;;;;;;;0.90;0.20;;;;;;;13.84;72.55;101175.72;4819860;29;20122;-80
2022/09/19 18:16:29;;;;;;;2.22;0.20;;;;;;;13.98;73.74;101214.41;4834019;29;20035;-81
2022/09/19 18:18:54;;;;;;;2.17;0.15;;;;;;;14.02;73.78;101208.34;4819126;29;20027;-81
2022/09/19 18:21:20;;;;;;;3.00;0.20;;;;;;;13.86;73.99;101179.06;4816276;29;20141;-80
2022/09/19 18:23:45;;;;;;;2.15;0.20;;;;;;;13.84;74.91;101187.41;4812317;29;20034;-80
2022/09/19 18:26:17;;;;;;;1.30;0.20;;;;;;;13.97;74.20;101216.28;4816684;29;20031;-81
2022/09/19 18:28:44;;;;;;;1.10;0.20;;;;;;;13.98;74.12;101211.72;4820687;29;20035;-80
2022/09/19 18:31:11;;;;;;;1.95;0.30;;;;;;;13.83;73.62;101195.69;4852494;29;20042;-80
2022/09/19 18:33:43;;;;;;;0.60;0.20;;;;;;;13.98;73.57;101231.47;4836293;29;20055;-81
2022/09/19 18:36:13;;;;;;;1.65;0.20;;;;;;;13.95;73.66;101226.50;4855415;29;20042;-81
2022/09/19 18:38:39;;;;;;;0.82;0.38;;;;;;;13.71;74.08;101192.81;4854704;29;20026;-81
2022/09/19 18:41:05;;;;;;;3.05;0.20;;;;;;;13.80;74.00;101218.59;4838877;29;20042;-81
2022/09/19 18:43:31;;;;;;;1.50;0.10;;;;;;;13.79;73.26;101216.09;4851640;29;20030;-81
2022/09/19 18:46:11;;;;;;;0.50;0.20;;;;;;;13.77;73.84;101216.31;4834652;29;20049;-80
2022/09/19 18:48:36;;;;;;;0.75;0.20;;;;;;;13.77;73.09;101229.00;4845124;29;20397;-81
2022/09/19 18:51:15;;;;;;;0.80;0.20;;;;;;;13.82;73.14;101243.56;4861163;29;20030;-82
2022/09/19 18:56:11;;;;;;;0.90;0.10;;;;;;;12.59;73.42;101053.16;4818382;29;20055;-81
2022/09/19 18:58:38;;;;;;;0.73;0.20;;;;;;;13.78;74.79;101242.31;4820979;29;20102;-82
2022/09/19 19:01:15;;;;;;;2.10;0.30;;;;;;;12.91;75.09;101110.91;4825764;29;20035;-82
2022/09/19 19:03:47;;;;;;;2.47;0.30;;;;;;;13.30;75.68;101152.50;4817688;29;20030;-82
2022/09/19 19:06:13;;;;;;;2.33;0.20;;;;;;;12.78;75.24;101100.09;4823475;29;20027;-81
2022/09/19 19:08:42;;;;;;;0.40;0.10;;;;;;;13.59;75.96;101249.41;4821120;29;20035;-81
2022/09/19 19:11:15;;;;;;;0.30;0.10;;;;;;;12.99;76.09;101162.03;4827147;29;20027;-82
2022/09/19 19:13:41;;;;;;;0.25;0.17;;;;;;;12.67;76.09;101105.06;4814411;29;20442;-82
2022/09/19 19:16:15;;;;;;;0.73;0.30;;;;;;;12.05;76.30;101010.91;4819175;29;20027;-82
2022/09/19 19:18:42;;;;;;;2.80;0.20;;;;;;;12.98;77.57;101187.38;4823430;29;20023;-82
2022/09/19 19:21:12;;;;;;;0.98;0.10;;;;;;;12.09;77.48;101036.47;4826149;29;20027;-82
2022/09/19 19:23:39;;;;;;;0.52;0.20;;;;;;;11.95;76.92;101014.84;4824193;29;20035;-80
2022/09/19 19:26:06;;;;;;;2.25;0.20;;;;;;;12.71;77.92;101127.06;4954617;24;20030;-81
2022/09/19 19:28:32;;;;;;;1.27;0.28;;;;;;;12.27;77.04;101070.94;4848610;29;20025;-81
2022/09/19 19:56:55;;;;;;;0.98;0.30;;;;;;;11.72;77.76;101041.25;5160797;24;20042;-84
2022/09/19 20:07:06;;;;;;;0.98;0.10;;;;;;;12.23;78.61;101141.50;5419542;23;20074;-83
2022/09/19 20:09:32;;;;;;;3.67;0.30;;;;;;;12.77;77.52;101211.84;4869068;29;20045;-82
2022/09/19 20:11:57;;;;;;;0.25;0.15;;;;;;;13.24;77.50;101272.22;4885190;29;20022;-83
2022/09/19 20:14:23;;;;;;;1.27;0.10;;;;;;;13.17;77.65;101267.63;4880974;29;20024;-82
2022/09/19 20:16:49;;;;;;;1.63;0.20;;;;;;;13.24;78.15;101272.22;4933132;24;20061;-81
2022/09/19 20:27:00;;;;;;;0.20;0.10;;;;;;;12.66;77.67;101181.69;5729006;23;20052;-79
2022/09/19 20:29:26;;;;;;;2.05;0.20;;;;;;;13.19;77.13;101259.31;4864316;29;20077;-81
2022/09/19 20:31:54;;;;;;;0.47;0.10;;;;;;;11.60;77.05;101014.03;4868821;29;20005;-82
2022/09/19 20:47:07;;;;;;;1.20;0.17;;;;;;;12.81;76.37;101208.53;5265876;23;20065;-82
2022/09/19 23:23:25;;;;;;;0.22;0.10;;;;;;;12.16;71.52;101255.81;4829364;29;20034;-84
2022/09/19 23:46:35;;;;;;;0.50;0.20;;;;;;;11.04;74.66;101186.50;5415615;24;20038;-82
